Terminal Aerodrome Forecast
Issued by NWS Sterling, VA

Current Version | Previous Version | Graphics & Text | Print | Product List | Glossary On
Versions: 1 2 3 4 5 6 7 8 9 10 11 12 13 14 15 16 17 18 19 20 21 22
000
FTUS41 KLWX 162300 RRA
TAFDCA
TAF
KDCA 162346Z 1700/1724 05006KT P6SM FEW250
     FM171400 09009KT P6SM FEW200
     FM171500 10010KT P6SM FEW035
     FM172200 07012KT P6SM BKN040=

USA.gov is the U.S. government's official web portal to all federal, state and local government web resources and services.